Racecast

Sean Bradley

Sheldon (CA) (CA) · 12 · DELTACA D1SJS D1 · Compare head to head

Athlete rating 117.5 2013 TF season
Best race 119.7 XC
Races 69
Seasons 5 2009 — 2013

RankedNation #17279·CA #2842·CA D1 #1466·SJS #302·SJS D1 #212·DELTA #32·Team #11 ?

Speed rating — all races

Cross Country

XC speed rating

2012 XC 114.3

Sheldon (CA) (CA) · Grade 12

Date Meet Event Result Place Rating Difficulty PR/SR Flags
2012-11-03 Calaveras County Fairgrounds 4828m 18:08 47th · 4th on team 116.7 +0.065 SR CSR RSR
2012-10-27 Willow Hills Reservoir Course 5000m 18:29 36th · 4th on team 116.7 +0.045 CSR RSR
2012-10-19 Lodi Lake 5000m 18:14 19th · 6th on team 114.2 +0.011 ★CR CSR
2012-10-17 Granite Park 5000m 18:02 34th · 6th on team 114.9 +0.002 SR CSR RSR
2012-10-13 Willow Hills Reservoir Course 5000m 19:29.4 94th · 6th on team 110.5 +0.045 CSR
2012-10-06 Woodward Park 5000m 18:34 183rd · 7th on team 112.6 +0.013 SR CSR RSR

2011 XC 116.1

Sheldon (CA) (CA) · Grade 11

Date Meet Event Result Place Rating Difficulty PR/SR Flags
2011-11-11 Willow Hills Reservoir Course 5000m 18:10 47th · 4th on team 118.7 +0.045 ★CR CSR RSR
2011-11-05 Calaveras County Fairgrounds 4828m 17:48 48th · 5th on team 117.7 +0.065 ★CR SR CSR
2011-10-29 Willow Hills Reservoir Course 5000m 18:15 18th · 3rd on team 118.3 +0.045 CR CSR
2011-10-08 Woodward Park 5000m 17:41 118th · 3rd on team 118.4 +0.013 CSR RSR
2011-10-05 Granite Park 5000m 17:38 20th · 4th on team 117.5 +0.002 ★CR SR CSR RSR
2011-10-01 Willow Hills Reservoir Course 5000m 18:37 17th · 4th on team 115.6 +0.045 CR SR CSR RSR
2011-09-24 Calaveras County Fairgrounds 4828m 18:38 35th · 2nd on team 113.8 +0.065 CR CSR
2011-09-17 Nevada Union High School 4828m 18:24.2 29th · 2nd on team 115.4 +0.076 ★CR CSR RSR
2011-09-03 Lagoon Valley Park 4828m 18:17.4 69th · 1st on team 114.5 +0.056 ★CR SR CSR RSR
2011-08-31 Lodi Lake 5000m 18:48 40th · 2nd on team 111.1 +0.011 CR SR CSR RSR

2010 XC 116.1

Sheldon (CA) (CA) · Grade 10

Date Meet Event Result Place Rating Difficulty PR/SR Flags
2010-11-13 Willow Hills Reservoir Course 3200m 11:44 10th · 1st on team 117.0 +0.088 ★PR ★CR SR CSR
2010-11-06 Calaveras County Fairgrounds 3218m 11:52 7th · 1st on team 117.1 +0.084 ★CR SR CSR
2010-10-30 Willow Hills Reservoir Course 3400m 11:51 3rd · 1st on team 118.7 +0.043 ★PR ★CR SR CSR
2010-10-22 Lodi Lake 2896m 10:10 1st · 1st on team 113.4 +0.018 ★PR ★CR SR CSR
2010-10-16 Willow Hills Reservoir Course 3400m 12:06.9 13th · 1st on team 116.9 +0.043 PR CR SR CSR
2010-10-09 Woodward Park 5000m 17:35 121st · 3rd on team 119.3 +0.013 ★PR ★CR SR CSR RSR
2010-10-06 Granite Park 4828m 17:40 24th · 3rd on team 114.0 +0.012 ★PR ★CR SR CSR
2010-09-25 Calaveras County Fairgrounds 3218m 12:05 4th · 1st on team 114.4 +0.084 CR SR CSR
2010-09-18 Nevada Union High School 4828m 18:32 2nd · 1st on team 114.8 +0.076 PR CR SR CSR
2010-09-04 Lagoon Valley Park 3218m 12:18.5 11th · 1st on team 115.4 +0.121 ★CR SR CSR RSR

2009 XC 112.3

Sheldon (CA) (CA) · Grade 9

Date Meet Event Result Place Rating Difficulty PR/SR Flags
2009-11-14 Willow Hills Reservoir Course 3400m 12:27 9th · 1st on team 114.5 +0.043 PR CR SR CSR
2009-11-07 Calaveras County Fairgrounds 3218m 12:11 15th · 1st on team 113.8 +0.084 CR CSR
2009-10-24 Lodi Lake 3218m 10:34 7th · 1st on team 119.7 -0.023 ★PR ★CR ★R SR CSR RSR
2009-10-17 Willow Hills Reservoir Course 3400m 13:05.9 31st · 2nd on team 109.6 +0.043 PR CR SR CSR
2009-10-10 Granite Park 3218m 11:08 12th · 3rd on team 113.5 -0.013 PR ★CR R SR CSR RSR
2009-10-03 Muller Vineyards 3218m 12:05 17th · 2nd on team 109.1 +0.024 PR ★CR R SR CSR RSR
2009-09-05 Lagoon Valley Park 3218m 13:31.4 20th · 2nd on team 106.1 +0.121 PR CR R SR CSR RSR

Track & Field

TF speed rating

2013 TF 116.6

Sheldon (CA) (CA) · Grade 12

Date Meet Event Result Place Rating Difficulty PR/SR Flags
2013-05-10 DRL Varsity Championships 1600m 4:47.81 12th · 1st on team 118.9 -0.031 ★PR SR RSR
2013-05-03 Folsom/Del Campo Distance Carnival 800m 2:10.5 10th · 3rd on team 117.2 -0.020
2013-04-26 Sheldon Distance Carnival 800m 2:09.8 11th · 2nd on team 116.2 -0.031 ★PR SR
2013-04-10 Jesuit/St. Francis vs. Sheldon 800m 2:14.03 6th · 2nd on team 113.0 -0.031
2013-04-10 Jesuit/St. Francis vs. Sheldon 1600m 4:52.48 8th · 3rd on team 117.1 -0.031
2013-04-06 Mark Macres Invitational 1600m 4:51.15 5th · 1st on team 118.3 -0.021 PR SR RSR
2013-04-06 Mark Macres Invitational 800m 2:11.84 8th · 3rd on team 115.8 -0.021
2013-03-22 Bronco Roundup Distance Carnival 1600m 4:53.38 21st · 2nd on team 116.3 -0.036 PR SR
2013-03-16 Depth Charge 800m 2:10.97 13th · 2nd on team 116.5 -0.020 PR SR
2013-03-15 Lodi/Bear Creek Distance Carnival 1600m 4:54.6 8th · 2nd on team 116.7 -0.023 SR RSR

2012 TF 114.2

Sheldon (CA) (CA) · Grade 11

Date Meet Event Result Place Rating Difficulty PR/SR Flags
2012-03-23 Diamondback Distance Extravaganza 800m 2:14.4 2nd · 1st on team 114.3 -0.013
2012-03-21 sheldon dual 800m 2:14.3 4th · 1st on team 113.2 -0.020 PR SR
2012-03-21 sheldon dual 1600m 4:59 7th · 3rd on team 114.6 -0.020
2012-03-17 Cal Invitational 800m 2:14.83 13th · 1st on team 113.2 -0.024 PR SR RSR
2012-03-17 Cal Invitational 1600m 4:56.65 19th · 2nd on team 115.9 -0.024 SR RSR

2011 TF 110.7

Sheldon (CA) (CA) · Grade 10

Date Meet Event Result Place Rating Difficulty PR/SR Flags
2011-05-12 Delta River League Varsity Championships 3200m 11:16.96 9th · 2nd on team 109.7 -0.020
2011-05-12 Delta River League Varsity Championships 1600m 4:58.94 13th · 1st on team 114.6 -0.020 RSR
2011-05-10 Delta River League F/S Championships 3200m 11:16.96 9th · 2nd on team 109.5 -0.020
2011-05-10 Delta River League F/S Championships 1600m 4:58.94 13th · 1st on team 114.5 -0.020 SR RSR
2011-05-07 Folsom/Del Campo Distance Carnival 1600m 5:17.4 8th · 3rd on team 108.0 -0.020
2011-05-07 Folsom/Del Campo Distance Carnival 800m 2:15.9 3rd · 2nd on team 112.1 -0.020 PR SR
2011-04-29 Sheldon Distance Carnival 1600m 5:06.5 8th · 1st on team 111.2 -0.031
2011-04-09 Lancer Invitational 1600m 5:17.43 17th · 1st on team 106.5 -0.031
2011-04-08 Bronco Roundup Distance Carnival 800m 2:23.77 28th · 2nd on team 104.1 -0.036 PR SR
2011-03-19 Lefebvre Relays 3200m 11:06 12th · 1st on team 113.2 -0.015 SR RSR
2011-03-19 Lefebvre Relays 3200m 11:07.29 13th · 2nd on team 113.0 -0.015
2011-03-12 Vallejo Relays 1600m 5:02.9 3rd · 2nd on team 111.8 -0.029 SR RSR

2010 TF 110.2

Sheldon (CA) (CA) · Grade 9

Date Meet Event Result Place Rating Difficulty PR/SR Flags
2010-05-13 Delta River Frosh Soph Track & Field Finals 1600m 4:54.6 2nd · 1st on team 115.5 -0.021 PR SR RSR
2010-05-13 Delta River Frosh Soph Track & Field Finals 3200m 11:03.88 5th · 1st on team 111.3 -0.021 ★PR SR
2010-04-30 Sheldon Distance Carnival 1600m 5:08.8 3rd · 1st on team 109.4 -0.031
2010-04-24 Glenn Poole Invitational 1600m 5:09.49 19th · 1st on team 110.0 -0.025
2010-04-23 Bronco Roundup Distance Carnival 3200m 11:14.18 27th · 1st on team 108.4 -0.036
2010-04-23 Bronco Roundup Distance Carnival 1600m 5:04.86 12th · 1st on team 110.3 -0.036 PR SR RSR
2010-03-06 CAL Invitational 1600m 5:07.08 17th · 1st on team 109.2 -0.036 PR SR RSR
2010-03-06 CAL Invitational 3200m 11:08.75 13th · 1st on team 108.7 -0.036 PR SR
2010-02-27 Clarke-Massey Relays 3200m 11:15.05 11th · 1st on team 108.6 -0.031 PR SR RSR